sensor_id;sensor_type;location;lat;lon;timestamp;pressure;altitude;pressure_sealevel;temperature;humidity
3832;BME280;12460;42.662;23.288;2023-02-19T00:01:15;94802.66;;;8.75;47.89
3832;BME280;12460;42.662;23.288;2023-02-19T00:16:23;94805.09;;;8.71;47.82
3832;BME280;12460;42.662;23.288;2023-02-19T00:31:30;94772.72;;;8.62;48.47
3832;BME280;12460;42.662;23.288;2023-02-19T00:46:41;94788.34;;;8.50;48.61
3832;BME280;12460;42.662;23.288;2023-02-19T01:01:46;94751.44;;;8.31;49.51
3832;BME280;12460;42.662;23.288;2023-02-19T01:16:50;94737.84;;;8.14;49.72
3832;BME280;12460;42.662;23.288;2023-02-19T01:31:55;94769.47;;;8.22;49.53
3832;BME280;12460;42.662;23.288;2023-02-19T01:46:59;94792.56;;;8.36;49.12
3832;BME280;12460;42.662;23.288;2023-02-19T02:02:04;94796.66;;;8.14;49.78
3832;BME280;12460;42.662;23.288;2023-02-19T02:32:23;94802.69;;;7.77;49.73
3832;BME280;12460;42.662;23.288;2023-02-19T02:47:31;94800.53;;;7.62;50.59
3832;BME280;12460;42.662;23.288;2023-02-19T03:02:48;94781.81;;;7.78;50.26
3832;BME280;12460;42.662;23.288;2023-02-19T03:17:58;94801.09;;;7.82;50.34
3832;BME280;12460;42.662;23.288;2023-02-19T03:33:25;94841.00;;;7.61;50.86
3832;BME280;12460;42.662;23.288;2023-02-19T03:48:34;94845.81;;;7.40;51.64
3832;BME280;12460;42.662;23.288;2023-02-19T04:03:52;94861.06;;;7.19;51.49
3832;BME280;12460;42.662;23.288;2023-02-19T04:19:05;94870.88;;;7.12;51.63
3832;BME280;12460;42.662;23.288;2023-02-19T04:34:11;94873.72;;;7.33;52.08
3832;BME280;12460;42.662;23.288;2023-02-19T04:49:15;94881.56;;;7.34;51.80
3832;BME280;12460;42.662;23.288;2023-02-19T05:04:20;94893.28;;;7.33;51.55
3832;BME280;12460;42.662;23.288;2023-02-19T05:19:24;94877.63;;;7.50;51.92
3832;BME280;12460;42.662;23.288;2023-02-19T05:34:29;94889.13;;;8.91;49.67
3832;BME280;12460;42.662;23.288;2023-02-19T05:49:33;94901.19;;;10.16;47.13
3832;BME280;12460;42.662;23.288;2023-02-19T06:04:40;94922.47;;;12.77;41.77
3832;BME280;12460;42.662;23.288;2023-02-19T06:19:46;94937.91;;;14.74;38.53
3832;BME280;12460;42.662;23.288;2023-02-19T06:34:51;94941.47;;;14.74;38.22
3832;BME280;12460;42.662;23.288;2023-02-19T06:49:55;94939.50;;;15.97;35.74
3832;BME280;12460;42.662;23.288;2023-02-19T07:04:59;94949.84;;;17.11;33.70
3832;BME280;12460;42.662;23.288;2023-02-19T07:20:04;94948.47;;;18.06;31.92
3832;BME280;12460;42.662;23.288;2023-02-19T07:35:09;94928.22;;;19.35;29.86
3832;BME280;12460;42.662;23.288;2023-02-19T07:50:14;94903.97;;;20.83;27.85
3832;BME280;12460;42.662;23.288;2023-02-19T08:05:18;94906.94;;;22.08;26.46
3832;BME280;12460;42.662;23.288;2023-02-19T08:20:22;94899.31;;;23.18;24.82
3832;BME280;12460;42.662;23.288;2023-02-19T08:35:27;94895.53;;;22.98;24.92
3832;BME280;12460;42.662;23.288;2023-02-19T08:50:31;94889.75;;;24.09;23.93
3832;BME280;12460;42.662;23.288;2023-02-19T09:05:37;94874.00;;;24.45;23.78
3832;BME280;12460;42.662;23.288;2023-02-19T09:20:41;94859.88;;;25.06;23.47
3832;BME280;12460;42.662;23.288;2023-02-19T09:35:45;94855.16;;;24.95;23.18
3832;BME280;12460;42.662;23.288;2023-02-19T09:50:50;94836.06;;;26.04;22.60
3832;BME280;12460;42.662;23.288;2023-02-19T10:05:56;94784.00;;;26.43;21.04
3832;BME280;12460;42.662;23.288;2023-02-19T10:21:02;94753.84;;;26.72;20.96
3832;BME280;12460;42.662;23.288;2023-02-19T10:36:23;94720.59;;;26.69;21.42
3832;BME280;12460;42.662;23.288;2023-02-19T10:51:38;94689.69;;;26.73;21.38
3832;BME280;12460;42.662;23.288;2023-02-19T11:06:44;94660.13;;;26.25;21.30
3832;BME280;12460;42.662;23.288;2023-02-19T11:21:50;94629.63;;;25.95;21.54
3832;BME280;12460;42.662;23.288;2023-02-19T11:37:15;94599.13;;;26.35;21.14
3832;BME280;12460;42.662;23.288;2023-02-19T12:38:29;94517.50;;;23.88;23.14
3832;BME280;12460;42.662;23.288;2023-02-19T12:53:53;94488.63;;;22.74;23.90
3832;BME280;12460;42.662;23.288;2023-02-19T13:09:27;94464.03;;;22.01;24.82
3832;BME280;12460;42.662;23.288;2023-02-19T13:24:35;94439.69;;;22.35;24.29
3832;BME280;12460;42.662;23.288;2023-02-19T13:39:52;94426.88;;;21.07;25.69
3832;BME280;12460;42.662;23.288;2023-02-19T14:10:59;94402.88;;;19.39;28.11
3832;BME280;12460;42.662;23.288;2023-02-19T14:26:08;94390.78;;;19.27;28.35
3832;BME280;12460;42.662;23.288;2023-02-19T14:41:13;94369.13;;;19.22;28.41
3832;BME280;12460;42.662;23.288;2023-02-19T14:56:25;94353.53;;;18.82;29.18
3832;BME280;12460;42.662;23.288;2023-02-19T15:11:32;94346.44;;;18.44;30.20
3832;BME280;12460;42.662;23.288;2023-02-19T15:26:40;94339.03;;;18.26;30.41
3832;BME280;12460;42.662;23.288;2023-02-19T15:41:52;94374.84;;;17.92;30.94
3832;BME280;12460;42.662;23.288;2023-02-19T15:57:06;94385.72;;;17.59;32.42
3832;BME280;12460;42.662;23.288;2023-02-19T16:12:22;94406.16;;;17.20;33.31
3832;BME280;12460;42.662;23.288;2023-02-19T16:27:38;94417.53;;;16.86;33.86
3832;BME280;12460;42.662;23.288;2023-02-19T16:57:55;94456.41;;;16.27;33.93
3832;BME280;12460;42.662;23.288;2023-02-19T17:13:00;94461.38;;;16.05;33.78
3832;BME280;12460;42.662;23.288;2023-02-19T17:28:04;94475.31;;;15.80;34.17
3832;BME280;12460;42.662;23.288;2023-02-19T17:43:09;94514.81;;;15.67;33.65
3832;BME280;12460;42.662;23.288;2023-02-19T17:58:14;94511.50;;;15.49;33.80
3832;BME280;12460;42.662;23.288;2023-02-19T18:13:19;94534.34;;;15.32;34.18
3832;BME280;12460;42.662;23.288;2023-02-19T18:28:24;94543.53;;;15.11;34.85
3832;BME280;12460;42.662;23.288;2023-02-19T18:43:28;94566.22;;;15.02;35.33
3832;BME280;12460;42.662;23.288;2023-02-19T18:58:33;94587.44;;;14.91;35.72
3832;BME280;12460;42.662;23.288;2023-02-19T19:13:38;94606.81;;;14.76;35.87
3832;BME280;12460;42.662;23.288;2023-02-19T19:28:42;94627.25;;;14.64;36.63
3832;BME280;12460;42.662;23.288;2023-02-19T19:43:47;94632.03;;;14.43;37.16
3832;BME280;12460;42.662;23.288;2023-02-19T19:58:52;94654.19;;;14.37;37.53
3832;BME280;12460;42.662;23.288;2023-02-19T20:13:57;94670.72;;;14.31;37.96
3832;BME280;12460;42.662;23.288;2023-02-19T20:29:01;94690.78;;;14.25;38.22
3832;BME280;12460;42.662;23.288;2023-02-19T20:44:09;94713.41;;;14.25;39.41
3832;BME280;12460;42.662;23.288;2023-02-19T20:59:15;94738.56;;;14.21;39.60
3832;BME280;12460;42.662;23.288;2023-02-19T21:14:20;94740.00;;;14.03;40.70
3832;BME280;12460;42.662;23.288;2023-02-19T21:29:24;94743.50;;;13.84;41.11
3832;BME280;12460;42.662;23.288;2023-02-19T21:44:30;94755.13;;;13.62;41.54
3832;BME280;12460;42.662;23.288;2023-02-19T21:59:34;94764.09;;;13.41;42.37
3832;BME280;12460;42.662;23.288;2023-02-19T22:14:39;94775.56;;;13.26;42.40
3832;BME280;12460;42.662;23.288;2023-02-19T22:29:44;94798.34;;;13.11;42.57
3832;BME280;12460;42.662;23.288;2023-02-19T22:44:48;94824.03;;;12.98;43.43
3832;BME280;12460;42.662;23.288;2023-02-19T22:59:53;94829.75;;;12.73;43.74
3832;BME280;12460;42.662;23.288;2023-02-19T23:14:57;94807.16;;;12.56;44.62
3832;BME280;12460;42.662;23.288;2023-02-19T23:30:02;94802.53;;;12.26;45.58
3832;BME280;12460;42.662;23.288;2023-02-19T23:45:07;94818.03;;;12.18;45.95
